Time;durP1;ratioP1;P1;durP2;ratioP2;P2;SDS_P1;SDS_P2;PMS_P1;PMS_P2;Temp;Humidity;BMP_temperature;BMP_pressure;BME280_temperature;BME280_humidity;BME280_pressure;Samples;Min_cycle;Max_cycle;Signal;HPM_P1;HPM_P2
2021/10/06 00:01:32;;;;;;;4.20;1.50;;;18.90;91.70;;;;;;5032017;28;20483;-81
2021/10/06 00:03:58;;;;;;;3.72;1.52;;;18.90;91.50;;;;;;5031628;28;20044;-80
2021/10/06 00:06:24;;;;;;;4.20;1.67;;;18.90;91.70;;;;;;5032604;28;20021;-81
2021/10/06 00:08:50;;;;;;;3.05;0.95;;;18.90;91.70;;;;;;5031678;28;20477;-83
2021/10/06 00:11:15;;;;;;;4.75;1.52;;;18.90;91.70;;;;;;5031488;28;20029;-82
2021/10/06 00:13:41;;;;;;;4.03;1.27;;;18.90;91.80;;;;;;5031771;28;20497;-81
2021/10/06 00:16:10;;;;;;;3.22;1.25;;;18.90;91.70;;;;;;5032022;28;20378;-80
2021/10/06 00:18:37;;;;;;;6.05;1.10;;;18.90;91.80;;;;;;5031135;28;20125;-80
2021/10/06 00:21:03;;;;;;;3.17;1.25;;;18.90;91.80;;;;;;5031845;28;20396;-80
2021/10/06 00:23:30;;;;;;;5.13;1.27;;;18.90;91.70;;;;;;5031530;28;20030;-82
2021/10/06 00:25:55;;;;;;;4.45;1.55;;;18.80;91.60;;;;;;5031727;28;20477;-82
2021/10/06 00:28:21;;;;;;;2.38;1.02;;;18.80;91.70;;;;;;5031795;28;20045;-81
2021/10/06 00:30:47;;;;;;;4.13;1.20;;;18.80;91.60;;;;;;5031530;28;20026;-81
2021/10/06 00:33:12;;;;;;;4.72;1.17;;;18.80;91.60;;;;;;5031431;28;20017;-80
2021/10/06 00:35:38;;;;;;;4.80;1.02;;;18.80;91.60;;;;;;5031171;28;20037;-81
2021/10/06 00:38:03;;;;;;;3.17;1.50;;;18.80;91.50;;;;;;5031449;28;20385;-81
2021/10/06 00:40:29;;;;;;;2.95;1.02;;;18.80;91.50;;;;;;5030775;28;20079;-81
2021/10/06 00:42:55;;;;;;;2.97;1.00;;;18.80;91.50;;;;;;5031407;28;20515;-81
2021/10/06 00:45:21;;;;;;;3.60;1.40;;;18.80;91.40;;;;;;5031998;28;20032;-81
2021/10/06 00:47:46;;;;;;;5.32;1.25;;;18.80;91.40;;;;;;5030736;28;20049;-82
2021/10/06 00:50:12;;;;;;;3.63;1.05;;;18.80;91.30;;;;;;5030812;28;20022;-81
2021/10/06 00:52:38;;;;;;;4.03;1.73;;;18.80;91.30;;;;;;5031206;28;20040;-82
2021/10/06 00:55:04;;;;;;;4.95;1.00;;;18.80;91.30;;;;;;5031180;28;20045;-82
2021/10/06 00:57:30;;;;;;;3.63;1.10;;;18.80;91.30;;;;;;5031173;28;20033;-81
2021/10/06 00:59:56;;;;;;;4.40;1.25;;;18.80;91.20;;;;;;5013478;28;20025;-80
2021/10/06 01:02:22;;;;;;;3.03;0.90;;;18.70;91.20;;;;;;5031411;28;20485;-80
2021/10/06 01:04:48;;;;;;;3.67;1.00;;;18.80;91.20;;;;;;5030742;28;20076;-79
2021/10/06 01:07:13;;;;;;;5.45;1.05;;;18.80;91.10;;;;;;5031010;28;20034;-80
2021/10/06 01:09:40;;;;;;;2.80;0.93;;;18.70;91.10;;;;;;5013308;28;20160;-80
2021/10/06 01:12:06;;;;;;;4.50;1.20;;;18.70;91.00;;;;;;5031234;28;20079;-80
2021/10/06 01:14:32;;;;;;;4.85;1.02;;;18.70;90.90;;;;;;5030934;28;20021;-80
2021/10/06 01:16:58;;;;;;;2.65;0.88;;;18.70;90.90;;;;;;5013235;28;20030;-80
2021/10/06 01:19:27;;;;;;;3.42;1.02;;;18.70;90.90;;;;;;5013330;28;20113;-81
2021/10/06 01:21:54;;;;;;;4.43;0.90;;;18.70;90.90;;;;;;5031279;28;20065;-79
2021/10/06 01:24:21;;;;;;;3.67;1.40;;;18.70;90.80;;;;;;5030861;28;20021;-82
2021/10/06 01:26:46;;;;;;;3.75;0.93;;;18.70;91.10;;;;;;5030538;28;20120;-80
2021/10/06 01:29:14;;;;;;;2.83;0.90;;;18.70;90.80;;;;;;5031390;28;20056;-80
2021/10/06 01:31:44;;;;;;;3.95;0.98;;;18.70;90.70;;;;;;5030643;28;20053;-80
2021/10/06 01:34:10;;;;;;;4.32;1.23;;;18.70;90.70;;;;;;5030635;28;20052;-80
2021/10/06 01:36:37;;;;;;;3.67;0.75;;;18.70;90.70;;;;;;5030854;28;20025;-80
2021/10/06 01:39:07;;;;;;;4.50;1.63;;;18.70;90.60;;;;;;5030990;28;20033;-79
2021/10/06 01:41:34;;;;;;;3.30;1.15;;;18.60;90.60;;;;;;5030560;28;20026;-81
2021/10/06 01:44:00;;;;;;;4.57;1.10;;;18.60;90.50;;;;;;5030437;28;20186;-80
2021/10/06 01:46:27;;;;;;;3.70;0.95;;;18.60;90.50;;;;;;5013020;28;20025;-79
2021/10/06 01:48:52;;;;;;;3.42;1.00;;;18.60;90.40;;;;;;5030620;28;20056;-80
2021/10/06 01:51:18;;;;;;;3.63;0.70;;;18.60;90.40;;;;;;5030977;28;20469;-80
2021/10/06 01:53:44;;;;;;;3.60;0.93;;;18.60;90.30;;;;;;5030514;28;20079;-79
2021/10/06 01:56:09;;;;;;;4.45;0.88;;;18.60;90.30;;;;;;5030291;28;20408;-79
2021/10/06 01:58:35;;;;;;;2.42;0.85;;;18.60;90.30;;;;;;5029807;28;20033;-81
2021/10/06 02:01:02;;;;;;;3.38;0.90;;;18.60;90.20;;;;;;5032717;28;20539;-80
2021/10/06 02:03:28;;;;;;;4.25;0.75;;;18.60;90.20;;;;;;5034246;28;20038;-79
2021/10/06 02:05:55;;;;;;;3.42;0.98;;;18.60;90.20;;;;;;5034898;28;20465;-80
2021/10/06 02:08:20;;;;;;;2.83;0.60;;;18.60;90.10;;;;;;5045438;28;20124;-80
2021/10/06 02:10:47;;;;;;;3.92;0.80;;;18.60;90.10;;;;;;5054428;28;20446;-81
2021/10/06 02:13:13;;;;;;;2.45;0.70;;;18.50;90.10;;;;;;5054217;28;20111;-80
2021/10/06 02:15:39;;;;;;;2.90;1.05;;;18.50;90.00;;;;;;5054027;28;20032;-79
2021/10/06 02:18:05;;;;;;;4.00;0.90;;;18.50;90.00;;;;;;5038771;28;20109;-81
2021/10/06 02:20:30;;;;;;;2.72;0.85;;;18.50;90.00;;;;;;5033359;28;20441;-80
2021/10/06 02:22:56;;;;;;;2.20;0.75;;;18.50;90.00;;;;;;5024009;28;20120;-79
2021/10/06 02:25:22;;;;;;;2.67;0.98;;;18.50;89.90;;;;;;5054270;28;20025;-81
2021/10/06 02:27:48;;;;;;;4.07;0.80;;;18.50;89.80;;;;;;5038867;28;20100;-80
2021/10/06 02:30:15;;;;;;;5.90;1.10;;;18.50;90.00;;;;;;5033861;28;20064;-80
2021/10/06 02:32:41;;;;;;;2.17;0.82;;;18.50;89.70;;;;;;5016382;28;20061;-79
2021/10/06 02:35:08;;;;;;;2.45;0.70;;;18.50;89.60;;;;;;5033747;28;20060;-81
2021/10/06 02:37:34;;;;;;;2.83;0.93;;;18.50;89.60;;;;;;5033351;28;20022;-80
2021/10/06 02:40:00;;;;;;;1.85;0.73;;;18.50;89.60;;;;;;5033952;28;20488;-84
2021/10/06 02:42:26;;;;;;;5.10;0.98;;;18.40;89.40;;;;;;5033588;28;20034;-80
2021/10/06 02:44:52;;;;;;;1.65;0.63;;;18.50;89.50;;;;;;5033685;28;20060;-81
2021/10/06 02:47:17;;;;;;;2.97;0.70;;;18.50;89.40;;;;;;5033774;28;20029;-80
2021/10/06 02:49:43;;;;;;;1.85;0.63;;;18.40;89.30;;;;;;5032878;28;20481;-80
2021/10/06 02:52:09;;;;;;;4.15;0.63;;;18.40;89.10;;;;;;5033295;28;20112;-81
2021/10/06 02:54:35;;;;;;;3.10;0.70;;;18.40;89.10;;;;;;5013705;28;20477;-80
2021/10/06 02:57:04;;;;;;;1.58;0.63;;;18.40;89.10;;;;;;5013748;28;20030;-81
2021/10/06 02:59:30;;;;;;;2.33;0.70;;;18.40;89.00;;;;;;5013594;28;20017;-81
2021/10/06 03:01:56;;;;;;;2.55;0.60;;;18.40;89.00;;;;;;5013247;28;20413;-80
2021/10/06 03:04:22;;;;;;;2.85;0.70;;;18.40;89.00;;;;;;5003698;28;20025;-80
2021/10/06 03:06:48;;;;;;;3.22;0.90;;;18.40;88.90;;;;;;5033199;28;20064;-81
2021/10/06 03:09:14;;;;;;;2.72;0.80;;;18.40;89.10;;;;;;5033314;28;20128;-81
2021/10/06 03:11:40;;;;;;;3.05;0.88;;;18.40;88.80;;;;;;5032440;28;20076;-81
2021/10/06 03:14:05;;;;;;;1.70;0.57;;;18.30;88.80;;;;;;5033250;28;20389;-81
2021/10/06 03:16:31;;;;;;;2.55;0.90;;;18.40;88.70;;;;;;5032343;28;20029;-80
2021/10/06 03:18:57;;;;;;;2.33;0.68;;;18.40;88.70;;;;;;5032578;28;20029;-81
2021/10/06 03:21:22;;;;;;;1.83;0.63;;;18.30;88.60;;;;;;5031627;28;20075;-81
2021/10/06 03:23:48;;;;;;;3.63;0.75;;;18.30;88.60;;;;;;5032751;28;20029;-81
2021/10/06 03:26:14;;;;;;;2.60;0.68;;;18.30;88.50;;;;;;5031738;28;20025;-81
2021/10/06 03:28:39;;;;;;;2.17;0.60;;;18.30;88.50;;;;;;5032298;28;20029;-80
2021/10/06 03:31:05;;;;;;;2.53;0.60;;;18.30;88.40;;;;;;5031960;28;20087;-81
2021/10/06 03:33:31;;;;;;;2.10;0.52;;;18.30;88.40;;;;;;5032109;28;20523;-80
2021/10/06 03:35:56;;;;;;;2.25;0.70;;;18.30;88.40;;;;;;5032287;28;20378;-81
2021/10/06 03:38:22;;;;;;;3.05;0.52;;;18.30;88.30;;;;;;5032853;28;20080;-81
2021/10/06 03:40:48;;;;;;;2.13;0.70;;;18.30;88.20;;;;;;5032029;28;20025;-81
2021/10/06 03:43:14;;;;;;;2.90;0.73;;;18.30;88.20;;;;;;5032286;28;20030;-81
2021/10/06 03:45:40;;;;;;;3.95;0.57;;;18.30;88.20;;;;;;5032555;28;20037;-79
2021/10/06 03:48:05;;;;;;;3.55;0.75;;;18.30;88.10;;;;;;5031627;28;20029;-80
2021/10/06 03:50:31;;;;;;;1.42;0.68;;;18.30;88.10;;;;;;5031624;28;20068;-80
2021/10/06 03:52:57;;;;;;;2.80;0.90;;;18.30;88.00;;;;;;5032080;28;20392;-79
2021/10/06 03:55:23;;;;;;;4.10;1.15;;;18.30;88.00;;;;;;5032736;28;20026;-79
2021/10/06 03:57:48;;;;;;;1.63;0.55;;;18.30;88.00;;;;;;5014278;28;20029;-82
2021/10/06 04:00:14;;;;;;;3.33;0.80;;;18.20;87.90;;;;;;5032310;28;20485;-80
2021/10/06 04:02:40;;;;;;;3.75;0.70;;;18.20;87.80;;;;;;5032177;28;20026;-80
2021/10/06 04:05:08;;;;;;;2.10;0.47;;;18.20;87.80;;;;;;5031312;28;20592;-81
2021/10/06 04:07:34;;;;;;;3.50;0.80;;;18.20;87.80;;;;;;5031755;28;20408;-80
2021/10/06 04:09:59;;;;;;;2.67;0.60;;;18.20;87.70;;;;;;5031589;28;20032;-81
2021/10/06 04:12:25;;;;;;;2.72;0.90;;;18.20;87.70;;;;;;5031179;28;20021;-81
2021/10/06 04:14:51;;;;;;;2.03;0.45;;;18.20;87.60;;;;;;5031149;28;20459;-82
2021/10/06 04:17:16;;;;;;;2.35;0.73;;;18.20;87.50;;;;;;5031957;28;20056;-82
2021/10/06 04:19:42;;;;;;;4.15;1.35;;;18.20;87.60;;;;;;5030881;28;20030;-80
2021/10/06 04:22:08;;;;;;;3.10;0.70;;;18.20;87.50;;;;;;5031156;28;20493;-82
2021/10/06 04:24:34;;;;;;;3.47;0.73;;;18.20;87.50;;;;;;5031383;28;20022;-79
2021/10/06 04:26:59;;;;;;;1.63;0.52;;;18.20;87.40;;;;;;5013805;28;20025;-80
2021/10/06 04:29:25;;;;;;;2.97;0.90;;;18.20;87.30;;;;;;5031788;28;20501;-80
2021/10/06 04:31:51;;;;;;;2.60;0.75;;;18.20;87.20;;;;;;5031303;28;20475;-80
2021/10/06 04:34:16;;;;;;;3.28;0.70;;;18.20;87.20;;;;;;5030937;28;20061;-80
2021/10/06 04:36:42;;;;;;;3.00;0.60;;;18.20;87.20;;;;;;5031397;28;20021;-81
2021/10/06 04:39:08;;;;;;;4.60;0.82;;;18.10;87.00;;;;;;5031506;28;20026;-81
2021/10/06 04:41:34;;;;;;;2.33;0.70;;;18.10;87.00;;;;;;5031275;28;20044;-81
2021/10/06 04:44:01;;;;;;;3.05;0.60;;;18.10;87.00;;;;;;5031000;28;20029;-80
2021/10/06 04:46:28;;;;;;;10.20;0.95;;;18.10;87.00;;;;;;5031373;28;20075;-81
2021/10/06 04:48:53;;;;;;;2.88;0.80;;;18.10;86.90;;;;;;5030253;28;20041;-80
2021/10/06 04:51:19;;;;;;;1.95;0.50;;;18.10;86.90;;;;;;5031485;28;20021;-80
2021/10/06 04:53:45;;;;;;;2.65;0.55;;;18.10;86.90;;;;;;5031264;28;20025;-80
2021/10/06 04:56:10;;;;;;;2.35;0.60;;;18.10;86.90;;;;;;5031322;28;20060;-81
2021/10/06 04:58:36;;;;;;;3.38;0.70;;;18.10;86.80;;;;;;5013569;28;20128;-80
2021/10/06 05:01:02;;;;;;;2.63;0.57;;;18.10;86.70;;;;;;5030380;28;20108;-80
2021/10/06 05:03:27;;;;;;;3.50;0.75;;;18.10;86.80;;;;;;5031419;28;20382;-80
2021/10/06 05:05:53;;;;;;;3.55;0.80;;;18.10;86.80;;;;;;5012706;28;20029;-81
2021/10/06 05:08:18;;;;;;;1.85;0.60;;;18.10;86.70;;;;;;5031107;28;20865;-79
2021/10/06 05:10:44;;;;;;;2.65;0.60;;;18.10;86.70;;;;;;5030729;28;20025;-80
2021/10/06 05:13:10;;;;;;;2.97;0.70;;;18.10;86.70;;;;;;5031041;28;20436;-83
2021/10/06 05:15:36;;;;;;;2.17;0.45;;;18.10;86.70;;;;;;5031059;28;20504;-80
2021/10/06 05:18:02;;;;;;;1.88;0.50;;;18.00;86.50;;;;;;5030394;28;20038;-80
2021/10/06 05:20:28;;;;;;;2.58;0.60;;;18.00;86.50;;;;;;5030797;28;20470;-80
2021/10/06 05:22:53;;;;;;;3.08;0.70;;;18.00;86.40;;;;;;5030647;28;20034;-80
2021/10/06 05:25:20;;;;;;;5.00;1.08;;;18.00;86.40;;;;;;5030962;28;20022;-79
2021/10/06 05:27:47;;;;;;;1.77;0.65;;;18.00;86.50;;;;;;5029541;28;20021;-81
2021/10/06 05:30:12;;;;;;;3.35;0.68;;;18.00;86.30;;;;;;5030831;28;20022;-81
2021/10/06 05:32:38;;;;;;;2.15;0.50;;;18.00;86.60;;;;;;5030474;28;20025;-80
2021/10/06 05:35:05;;;;;;;2.25;0.60;;;18.00;86.80;;;;;;5033431;28;20025;-80
2021/10/06 05:37:30;;;;;;;3.47;0.80;;;18.00;87.00;;;;;;5034955;28;20027;-81
2021/10/06 05:39:56;;;;;;;3.17;0.70;;;18.00;87.20;;;;;;5034791;28;20065;-79
2021/10/06 05:42:22;;;;;;;3.72;0.68;;;18.00;87.30;;;;;;5034871;28;20088;-79
2021/10/06 05:44:47;;;;;;;3.80;0.82;;;18.00;87.50;;;;;;5034485;28;20100;-79
2021/10/06 05:47:13;;;;;;;1.85;0.70;;;18.00;87.50;;;;;;5033890;28;20029;-79
2021/10/06 05:49:39;;;;;;;2.47;0.55;;;18.00;87.80;;;;;;5033956;28;20032;-78
2021/10/06 05:52:04;;;;;;;38.22;30.77;;;18.00;88.10;;;;;;5034482;28;20052;-81
2021/10/06 05:54:30;;;;;;;12.77;6.43;;;18.10;88.20;;;;;;5016663;28;20065;-82
2021/10/06 05:56:56;;;;;;;8.48;4.57;;;18.00;88.20;;;;;;5055377;28;20135;-81
2021/10/06 05:59:22;;;;;;;11.60;7.65;;;18.10;88.30;;;;;;5056470;28;20068;-82
2021/10/06 06:01:47;;;;;;;13.70;8.32;;;18.00;88.40;;;;;;5056056;28;20064;-83
2021/10/06 06:04:17;;;;;;;11.57;6.43;;;18.00;88.50;;;;;;5033005;28;20055;-83
2021/10/06 06:06:43;;;;;;;11.32;6.38;;;18.00;88.60;;;;;;5036162;28;20455;-82
2021/10/06 06:09:11;;;;;;;10.38;5.45;;;18.00;88.60;;;;;;5036491;28;20095;-84
2021/10/06 06:11:36;;;;;;;11.90;6.72;;;18.00;88.60;;;;;;5035117;28;20017;-82
2021/10/06 06:14:03;;;;;;;9.93;5.35;;;18.10;88.60;;;;;;5033651;28;20037;-82
2021/10/06 06:16:29;;;;;;;10.35;4.72;;;18.00;88.70;;;;;;5034582;28;20057;-80
2021/10/06 06:18:55;;;;;;;10.15;5.32;;;18.10;88.80;;;;;;5033285;28;20056;-81
2021/10/06 06:21:20;;;;;;;7.70;4.32;;;18.10;88.70;;;;;;5034126;28;20025;-80
2021/10/06 06:23:47;;;;;;;7.40;3.92;;;18.00;88.70;;;;;;5033677;28;20033;-82
2021/10/06 06:26:13;;;;;;;7.70;3.85;;;18.10;88.70;;;;;;5033818;28;20013;-83
2021/10/06 06:28:39;;;;;;;11.18;4.05;;;18.10;88.70;;;;;;5033665;28;20037;-83
2021/10/06 06:31:06;;;;;;;8.77;3.67;;;18.10;88.70;;;;;;5033609;28;20164;-82
2021/10/06 06:33:32;;;;;;;6.38;3.45;;;18.10;88.80;;;;;;5034269;28;20025;-82
2021/10/06 06:35:59;;;;;;;5.53;2.88;;;18.10;88.70;;;;;;5033260;28;20111;-82
2021/10/06 06:38:28;;;;;;;4.65;2.90;;;18.10;88.70;;;;;;5033556;28;20021;-86
2021/10/06 06:40:54;;;;;;;7.70;3.17;;;18.10;88.80;;;;;;5032584;28;20100;-86
2021/10/06 06:43:19;;;;;;;6.40;2.75;;;18.10;89.10;;;;;;5033681;28;20508;-83
2021/10/06 06:45:45;;;;;;;4.90;2.38;;;18.20;89.60;;;;;;5032675;28;20025;-81
2021/10/06 06:48:11;;;;;;;6.40;2.30;;;18.20;89.30;;;;;;5015160;28;20044;-79
2021/10/06 06:50:37;;;;;;;8.43;3.15;;;18.20;89.30;;;;;;5030847;28;20396;-81
2021/10/06 06:53:03;;;;;;;12.38;3.08;;;18.20;89.40;;;;;;5031923;28;20079;-83
2021/10/06 06:55:28;;;;;;;8.27;2.40;;;18.20;89.40;;;;;;5030511;28;20045;-82
2021/10/06 06:57:54;;;;;;;4.80;2.17;;;18.20;89.40;;;;;;5028413;28;20489;-82
2021/10/06 07:00:20;;;;;;;4.57;2.22;;;18.30;89.30;;;;;;5028723;28;20029;-82
2021/10/06 07:02:45;;;;;;;4.00;1.50;;;18.30;89.30;;;;;;5028102;28;20026;-81
2021/10/06 07:05:11;;;;;;;5.85;2.05;;;18.30;89.20;;;;;;5028866;28;20057;-81
2021/10/06 07:07:37;;;;;;;8.10;2.33;;;18.30;89.20;;;;;;5028109;28;20065;-81
2021/10/06 07:10:04;;;;;;;6.78;1.67;;;18.30;89.10;;;;;;5027913;28;20017;-82
2021/10/06 07:12:29;;;;;;;7.78;1.98;;;18.30;88.90;;;;;;5028609;28;20026;-80
2021/10/06 07:14:55;;;;;;;10.65;1.70;;;18.40;88.90;;;;;;5027987;28;20512;-78
2021/10/06 07:17:21;;;;;;;5.18;1.60;;;18.40;88.80;;;;;;5023293;28;20041;-77
2021/10/06 07:19:47;;;;;;;5.53;1.60;;;18.40;88.70;;;;;;5024048;28;20493;-77
2021/10/06 07:22:13;;;;;;;8.10;1.52;;;18.40;88.60;;;;;;5028282;28;20453;-77
2021/10/06 07:24:39;;;;;;;7.68;1.40;;;18.40;88.40;;;;;;5027480;28;20040;-77
2021/10/06 07:27:05;;;;;;;4.93;1.48;;;18.50;88.40;;;;;;5028050;28;20065;-78
2021/10/06 07:29:31;;;;;;;3.67;1.35;;;18.50;88.40;;;;;;5027477;28;20403;-78
2021/10/06 07:31:56;;;;;;;8.30;1.52;;;18.50;88.20;;;;;;5027027;28;20033;-78
2021/10/06 07:34:22;;;;;;;8.43;1.92;;;18.50;88.20;;;;;;5027800;28;20049;-77
2021/10/06 07:36:48;;;;;;;3.30;1.20;;;18.50;88.20;;;;;;5027431;28;20033;-77
2021/10/06 07:39:14;;;;;;;5.88;1.20;;;18.60;88.20;;;;;;5026892;28;20032;-77
2021/10/06 07:41:39;;;;;;;4.47;1.17;;;18.50;88.10;;;;;;5026893;28;20052;-77
2021/10/06 07:44:05;;;;;;;5.03;1.10;;;18.60;88.10;;;;;;5008866;28;20086;-77
2021/10/06 07:46:31;;;;;;;5.10;1.13;;;18.60;88.10;;;;;;5009440;28;20098;-77
2021/10/06 07:48:57;;;;;;;4.25;1.10;;;18.60;88.10;;;;;;5027758;28;20033;-77
2021/10/06 07:51:23;;;;;;;3.65;1.00;;;18.60;88.10;;;;;;5026693;28;20025;-78
2021/10/06 07:53:48;;;;;;;6.75;1.15;;;18.60;88.10;;;;;;5026414;28;20021;-77
2021/10/06 07:56:15;;;;;;;5.07;1.33;;;18.60;88.10;;;;;;5026999;28;20075;-78
2021/10/06 07:58:40;;;;;;;3.35;0.98;;;18.70;88.10;;;;;;5027446;28;20022;-77
2021/10/06 08:01:07;;;;;;;7.70;1.10;;;18.70;88.10;;;;;;5026461;28;20309;-77
2021/10/06 08:03:33;;;;;;;7.18;0.93;;;18.60;88.00;;;;;;5027254;28;20056;-77
2021/10/06 08:05:58;;;;;;;3.13;0.90;;;18.70;88.10;;;;;;5026953;28;20409;-77
2021/10/06 08:08:26;;;;;;;5.03;0.80;;;18.70;88.00;;;;;;5026373;28;20045;-77
2021/10/06 08:10:57;;;;;;;3.88;1.00;;;18.70;88.00;;;;;;5026617;28;20034;-78
2021/10/06 08:13:23;;;;;;;5.13;1.40;;;18.70;87.90;;;;;;5026386;28;20399;-77
2021/10/06 08:15:51;;;;;;;3.53;0.85;;;18.70;87.90;;;;;;5027933;28;20025;-77
2021/10/06 08:18:19;;;;;;;5.22;1.20;;;18.70;87.90;;;;;;5009146;28;20481;-77
2021/10/06 08:20:46;;;;;;;4.70;1.88;;;18.70;87.80;;;;;;5027000;28;20460;-78
2021/10/06 08:23:11;;;;;;;4.65;1.35;;;18.70;87.70;;;;;;5027054;28;20047;-77
2021/10/06 08:25:37;;;;;;;2.97;1.08;;;18.80;87.70;;;;;;5026129;28;20033;-77
2021/10/06 08:28:03;;;;;;;3.67;0.70;;;18.80;87.70;;;;;;5026718;28;20079;-77
2021/10/06 08:30:29;;;;;;;3.92;1.08;;;18.80;87.60;;;;;;5008763;28;20028;-77
2021/10/06 08:32:55;;;;;;;3.88;1.02;;;18.80;87.60;;;;;;5025749;28;20037;-78
2021/10/06 08:35:20;;;;;;;4.30;0.90;;;18.80;87.60;;;;;;5026550;28;20087;-77
2021/10/06 08:37:46;;;;;;;3.60;1.05;;;18.80;87.60;;;;;;5025688;28;20404;-77
2021/10/06 08:40:12;;;;;;;2.83;0.88;;;18.80;87.40;;;;;;5025928;28;20979;-78
2021/10/06 08:42:41;;;;;;;3.83;1.10;;;18.80;87.50;;;;;;5025940;28;20497;-77
2021/10/06 08:45:07;;;;;;;5.53;1.58;;;18.90;87.50;;;;;;5008044;28;20029;-77
2021/10/06 08:47:40;;;;;;;4.60;1.25;;;18.80;87.40;;;;;;5026230;28;20022;-77
2021/10/06 08:50:12;;;;;;;2.35;0.95;;;18.90;87.50;;;;;;5025886;28;20029;-78
2021/10/06 08:52:38;;;;;;;2.58;0.90;;;18.90;87.50;;;;;;5025827;28;20489;-78
2021/10/06 08:55:06;;;;;;;4.85;1.27;;;18.90;87.40;;;;;;5026031;28;20029;-77
2021/10/06 08:57:33;;;;;;;4.03;0.80;;;18.90;87.30;;;;;;5026648;28;20033;-78
2021/10/06 08:59:58;;;;;;;2.92;0.63;;;18.90;88.00;;;;;;5028658;28;20083;-77
2021/10/06 09:02:24;;;;;;;4.95;1.13;;;18.90;87.30;;;;;;5046855;28;20036;-77
2021/10/06 09:04:50;;;;;;;3.85;1.00;;;18.90;87.20;;;;;;5047857;28;20017;-78
2021/10/06 09:07:16;;;;;;;2.97;1.05;;;18.90;87.20;;;;;;5029036;28;20041;-77
2021/10/06 09:09:42;;;;;;;4.15;1.20;;;18.90;87.10;;;;;;5024605;28;20029;-78
2021/10/06 09:12:14;;;;;;;4.72;1.20;;;18.90;87.00;;;;;;5025601;28;20045;-77
2021/10/06 09:14:47;;;;;;;3.45;1.00;;;18.90;87.00;;;;;;5026202;28;20032;-77
2021/10/06 09:17:18;;;;;;;3.40;0.70;;;18.90;86.90;;;;;;5025885;28;20030;-77
2021/10/06 09:19:56;;;;;;;4.70;1.23;;;18.90;87.00;;;;;;5025565;28;20048;-77
2021/10/06 09:22:27;;;;;;;3.80;1.02;;;18.90;87.00;;;;;;5026104;28;20060;-77
2021/10/06 09:25:08;;;;;;;3.80;0.98;;;18.90;86.90;;;;;;5025058;28;20108;-78
2021/10/06 09:27:40;;;;;;;2.83;0.90;;;18.90;86.80;;;;;;5026106;28;20029;-77
2021/10/06 09:30:07;;;;;;;5.22;0.90;;;18.90;86.80;;;;;;5025515;28;20112;-77
2021/10/06 09:32:39;;;;;;;2.85;1.20;;;18.90;86.80;;;;;;5025756;28;20374;-77
2021/10/06 09:35:15;;;;;;;3.10;0.75;;;18.90;87.00;;;;;;5026559;28;20026;-77
2021/10/06 09:37:47;;;;;;;4.38;1.00;;;19.00;87.00;;;;;;5025505;28;20029;-77
2021/10/06 09:40:16;;;;;;;3.00;0.80;;;19.00;86.80;;;;;;5007674;28;20045;-77
2021/10/06 09:42:49;;;;;;;4.50;0.80;;;19.00;86.80;;;;;;5026070;28;20038;-77
2021/10/06 09:45:51;;;;;;;2.22;0.60;;;19.00;86.70;;;;;;5025447;28;20099;-77
2021/10/06 09:48:36;;;;;;;4.07;0.75;;;19.00;86.80;;;;;;5025176;28;20032;-78
2021/10/06 09:51:07;;;;;;;2.03;0.70;;;19.00;86.80;;;;;;5025558;28;21544;-77
2021/10/06 09:53:32;;;;;;;2.20;0.93;;;19.00;86.70;;;;;;5024966;28;20776;-75
2021/10/06 09:56:04;;;;;;;4.93;0.98;;;19.00;86.80;;;;;;5025706;28;20061;-75
2021/10/06 09:58:30;;;;;;;2.50;0.80;;;19.00;86.80;;;;;;5026620;28;20099;-75
2021/10/06 10:00:57;;;;;;;3.83;0.93;;;19.00;86.50;;;;;;5007265;28;20064;-75
2021/10/06 10:03:23;;;;;;;3.75;1.23;;;19.00;86.50;;;;;;5024962;28;20120;-75
2021/10/06 10:05:49;;;;;;;4.18;0.90;;;19.10;86.70;;;;;;5026269;28;20115;-75
2021/10/06 10:08:15;;;;;;;3.15;0.73;;;19.10;86.60;;;;;;5031215;28;20092;-75
2021/10/06 10:10:41;;;;;;;3.20;0.85;;;19.10;87.20;;;;;;5044804;28;20028;-80
2021/10/06 10:13:07;;;;;;;2.78;0.90;;;19.10;86.50;;;;;;5030473;28;20036;-80
2021/10/06 10:15:33;;;;;;;5.30;1.10;;;19.10;86.50;;;;;;5030272;28;20083;-82
2021/10/06 10:18:01;;;;;;;2.40;0.77;;;19.10;86.40;;;;;;5029695;28;20028;-83
2021/10/06 10:20:31;;;;;;;2.88;1.00;;;19.10;86.30;;;;;;5030396;28;20087;-82
2021/10/06 10:23:00;;;;;;;2.65;0.75;;;19.10;86.10;;;;;;5033454;28;20117;-79
2021/10/06 10:25:31;;;;;;;3.38;1.10;;;19.10;86.20;;;;;;5033536;28;20080;-84
2021/10/06 10:28:12;;;;;;;1.45;0.52;;;19.20;86.40;;;;;;5033249;28;20520;-86
2021/10/06 10:30:55;;;;;;;3.25;0.70;;;19.20;86.70;;;;;;5031550;28;20068;-88
2021/10/06 10:33:40;;;;;;;3.20;0.60;;;19.20;86.60;;;;;;5033831;28;20477;-81
2021/10/06 10:36:45;;;;;;;3.63;0.90;;;19.20;86.70;;;;;;5033572;28;20021;-82
2021/10/06 10:39:28;;;;;;;3.40;1.00;;;19.20;87.20;;;;;;4934661;29;20039;-85
2021/10/06 10:41:56;;;;;;;2.70;0.80;;;19.30;90.30;;;;;;4918103;29;20114;-82
2021/10/06 10:44:30;;;;;;;3.92;0.75;;;19.20;91.10;;;;;;4993854;28;20091;-79
2021/10/06 10:46:56;;;;;;;4.45;1.00;;;19.30;91.40;;;;;;5032954;28;20033;-80
2021/10/06 10:49:22;;;;;;;4.70;1.00;;;19.30;91.80;;;;;;5039696;28;20021;-81
2021/10/06 10:51:53;;;;;;;4.32;1.00;;;19.30;91.70;;;;;;5032859;28;20029;-81
2021/10/06 10:54:40;;;;;;;6.03;1.42;;;19.30;91.60;;;;;;5046934;28;20029;-79
2021/10/06 10:57:16;;;;;;;9.52;1.98;;;19.40;91.80;;;;;;5053237;28;20032;-79
2021/10/06 10:59:48;;;;;;;11.00;2.15;;;19.40;91.80;;;;;;5033083;28;20033;-81
2021/10/06 11:02:15;;;;;;;12.88;2.25;;;19.40;92.10;;;;;;5033358;28;20026;-80
2021/10/06 11:04:45;;;;;;;7.05;1.70;;;19.40;91.70;;;;;;5032578;28;20037;-81
2021/10/06 11:07:12;;;;;;;8.20;1.73;;;19.40;91.80;;;;;;5014710;28;20026;-79
2021/10/06 11:09:45;;;;;;;6.97;1.83;;;19.40;91.60;;;;;;5032509;28;20040;-79
2021/10/06 11:12:14;;;;;;;8.73;1.67;;;19.40;91.50;;;;;;5041039;28;20075;-80
2021/10/06 11:14:43;;;;;;;5.75;2.00;;;19.40;91.60;;;;;;5029053;28;20068;-81
2021/10/06 11:17:19;;;;;;;12.35;1.85;;;19.50;91.50;;;;;;5026095;28;20363;-77
2021/10/06 11:19:56;;;;;;;10.68;2.60;;;19.50;91.40;;;;;;5031086;28;20033;-80
2021/10/06 11:22:22;;;;;;;9.85;1.80;;;19.40;91.60;;;;;;5020814;28;20421;-81
2021/10/06 11:24:49;;;;;;;10.15;1.98;;;19.50;91.50;;;;;;5034646;28;20029;-81
2021/10/06 11:27:15;;;;;;;6.60;1.58;;;19.50;91.80;;;;;;5032122;28;20032;-82
2021/10/06 11:29:42;;;;;;;8.18;2.63;;;19.50;92.00;;;;;;5032069;28;20029;-79
2021/10/06 11:32:07;;;;;;;5.43;1.50;;;19.50;91.90;;;;;;5014882;28;20013;-81
2021/10/06 11:34:47;;;;;;;6.80;1.15;;;19.50;91.90;;;;;;5032094;28;20037;-81
2021/10/06 11:37:17;;;;;;;6.82;1.63;;;19.50;91.90;;;;;;5031418;28;20096;-79
2021/10/06 11:39:43;;;;;;;7.40;1.42;;;19.50;91.70;;;;;;5030897;28;20505;-79
2021/10/06 11:42:09;;;;;;;5.82;1.48;;;19.50;91.70;;;;;;5030571;28;20029;-78
2021/10/06 11:44:35;;;;;;;7.60;2.05;;;19.40;91.50;;;;;;5032311;28;20025;-78
2021/10/06 11:47:07;;;;;;;2.92;1.00;;;19.50;93.80;;;;;;5032299;28;20021;-77
2021/10/06 11:49:36;;;;;;;7.80;1.73;;;19.50;92.50;;;;;;5032309;28;20468;-79
2021/10/06 11:52:04;;;;;;;4.25;1.55;;;19.50;92.00;;;;;;5032076;28;20030;-76
2021/10/06 11:54:29;;;;;;;4.15;1.05;;;19.50;92.50;;;;;;5031254;28;20052;-80
2021/10/06 11:57:00;;;;;;;5.20;1.73;;;19.50;92.00;;;;;;5030710;28;20501;-79
2021/10/06 11:59:30;;;;;;;6.53;1.17;;;19.50;91.80;;;;;;5031238;28;20021;-77
2021/10/06 12:02:04;;;;;;;8.05;1.50;;;19.50;91.90;;;;;;5031739;28;20492;-79
2021/10/06 12:04:39;;;;;;;5.50;1.45;;;19.50;91.70;;;;;;5014655;28;20029;-81
2021/10/06 12:07:07;;;;;;;5.43;1.42;;;19.40;91.40;;;;;;5031975;28;20025;-81
2021/10/06 12:09:48;;;;;;;5.30;0.80;;;19.40;91.50;;;;;;5031409;28;20057;-77
2021/10/06 12:12:21;;;;;;;4.38;1.38;;;19.40;91.50;;;;;;5031759;28;20017;-78
2021/10/06 12:14:50;;;;;;;4.00;1.17;;;19.40;91.10;;;;;;5031176;28;20022;-82
2021/10/06 12:17:22;;;;;;;3.45;1.17;;;19.40;91.20;;;;;;5031634;28;20025;-78
2021/10/06 12:20:11;;;;;;;4.22;1.00;;;19.40;90.90;;;;;;5031543;28;20117;-79
2021/10/06 12:22:38;;;;;;;5.38;1.38;;;19.40;91.00;;;;;;5032166;28;20389;-80
2021/10/06 12:25:19;;;;;;;3.90;1.35;;;19.40;90.90;;;;;;5013433;28;20018;-78
2021/10/06 12:27:59;;;;;;;3.42;0.88;;;19.40;90.80;;;;;;5030723;28;20167;-79
2021/10/06 12:30:30;;;;;;;4.35;1.20;;;19.30;90.70;;;;;;5031781;28;20033;-81
2021/10/06 12:33:01;;;;;;;5.13;1.20;;;19.40;90.70;;;;;;5031284;28;20485;-78
2021/10/06 12:35:27;;;;;;;3.80;1.25;;;19.30;90.60;;;;;;5031492;28;20500;-80
2021/10/06 12:37:59;;;;;;;3.80;1.00;;;19.30;91.00;;;;;;5031292;28;20025;-78
2021/10/06 12:40:36;;;;;;;3.38;1.08;;;19.30;90.60;;;;;;5031542;28;20025;-78
2021/10/06 12:43:09;;;;;;;4.57;1.13;;;19.30;90.60;;;;;;5030178;28;20103;-78
2021/10/06 12:45:55;;;;;;;6.97;1.17;;;19.30;90.50;;;;;;5013182;28;20436;-78
2021/10/06 12:48:31;;;;;;;;;;;19.30;90.50;;;;;;5031686;28;20542;-81